Time;durP1;ratioP1;P1;durP2;ratioP2;P2;SDS_P1;SDS_P2;PMS_P1;PMS_P2;Temp;Humidity;BMP_temperature;BMP_pressure;BME280_temperature;BME280_humidity;BME280_pressure;Samples;Min_cycle;Max_cycle;Signal;HPM_P1;HPM_P2
2023/07/27 00:01:25;;;;;;;5.82;2.50;;;10.60;99.90;;;;;;7565945;19;20011;-72
2023/07/27 00:03:57;;;;;;;3.78;2.35;;;10.60;99.90;;;;;;7554299;19;20013;-72
2023/07/27 00:06:30;;;;;;;2.95;2.25;;;10.60;99.90;;;;;;7558364;19;20548;-72
2023/07/27 00:09:03;;;;;;;4.18;2.67;;;10.50;99.90;;;;;;7554669;19;20112;-73
2023/07/27 00:11:36;;;;;;;3.42;2.13;;;10.50;99.90;;;;;;7566141;19;21432;-72
2023/07/27 00:14:08;;;;;;;4.65;2.50;;;10.50;99.90;;;;;;7545211;19;21637;-72
2023/07/27 00:16:41;;;;;;;4.70;2.45;;;10.40;99.90;;;;;;7563489;19;20019;-72
2023/07/27 00:19:13;;;;;;;4.80;2.60;;;10.40;99.90;;;;;;7554874;19;20017;-72
2023/07/27 00:21:46;;;;;;;3.63;2.20;;;10.50;99.90;;;;;;7565975;19;20022;-72
2023/07/27 00:24:18;;;;;;;4.00;2.88;;;10.40;99.90;;;;;;7560302;19;20026;-71
2023/07/27 00:26:50;;;;;;;4.55;2.58;;;10.30;99.90;;;;;;7578715;19;21090;-72
2023/07/27 00:29:23;;;;;;;9.45;3.15;;;10.40;99.90;;;;;;7564427;19;20018;-72
2023/07/27 00:31:55;;;;;;;4.60;2.90;;;10.40;99.90;;;;;;7562363;19;20626;-71
2023/07/27 00:34:27;;;;;;;3.67;2.58;;;10.30;99.90;;;;;;7563232;19;21105;-71
2023/07/27 00:37:00;;;;;;;3.67;2.47;;;10.30;99.90;;;;;;7568707;19;20018;-72
2023/07/27 00:39:34;;;;;;;;;;;10.30;99.90;;;;;;7570216;19;20021;-72
2023/07/27 00:42:06;;;;;;;6.28;2.88;;;10.30;99.90;;;;;;7560779;19;19918;-71
2023/07/27 00:44:39;;;;;;;5.75;3.03;;;10.30;99.90;;;;;;7552376;19;20052;-72
2023/07/27 00:47:11;;;;;;;7.03;3.25;;;10.30;99.90;;;;;;7559408;19;20029;-71
2023/07/27 00:49:44;;;;;;;4.07;2.67;;;10.30;99.90;;;;;;7551587;19;20697;-74
2023/07/27 00:52:17;;;;;;;5.47;3.13;;;10.30;99.90;;;;;;7562572;19;20056;-72
2023/07/27 00:54:49;;;;;;;7.20;2.85;;;10.30;99.90;;;;;;7571182;19;20048;-72
2023/07/27 00:57:21;;;;;;;3.20;2.53;;;10.30;99.90;;;;;;7564840;19;20024;-72
2023/07/27 00:59:54;;;;;;;6.50;2.70;;;10.20;99.90;;;;;;7544124;19;20496;-72
2023/07/27 01:02:26;;;;;;;5.80;2.88;;;10.20;99.90;;;;;;7565336;19;20817;-72
2023/07/27 01:04:58;;;;;;;3.78;2.72;;;10.20;99.90;;;;;;7561593;19;20083;-71
2023/07/27 01:07:31;;;;;;;5.28;2.90;;;10.10;99.90;;;;;;7549922;19;20059;-72
2023/07/27 01:10:04;;;;;;;5.60;2.72;;;10.00;99.90;;;;;;7527492;19;20101;-71
2023/07/27 01:12:44;;;;;;;7.88;3.13;;;10.00;99.90;;;;;;7549093;19;20017;-72
2023/07/27 01:15:21;;;;;;;5.40;3.13;;;10.00;99.90;;;;;;7532944;19;20018;-71
2023/07/27 01:18:18;;;;;;;5.70;3.92;;;9.90;99.90;;;;;;7528767;19;20091;-71
2023/07/27 01:21:00;;;;;;;5.15;3.13;;;9.90;99.90;;;;;;7545765;19;20018;-71
2023/07/27 01:23:45;;;;;;;6.25;2.90;;;9.90;99.90;;;;;;7541536;19;20018;-71
2023/07/27 01:26:39;;;;;;;7.57;2.92;;;9.80;99.90;;;;;;7538385;19;20015;-72
2023/07/27 01:29:30;;;;;;;6.25;3.50;;;9.90;99.90;;;;;;7548515;19;20057;-72
2023/07/27 01:32:04;;;;;;;4.28;3.00;;;9.80;99.90;;;;;;7551756;19;20985;-72
2023/07/27 01:34:43;;;;;;;3.95;2.78;;;9.80;99.90;;;;;;7542017;19;20161;-73
2023/07/27 01:37:18;;;;;;;4.15;2.83;;;9.70;99.90;;;;;;7545870;19;20022;-72
2023/07/27 01:39:51;;;;;;;4.53;3.33;;;9.70;99.90;;;;;;7574376;19;20587;-72
2023/07/27 01:42:25;;;;;;;4.80;3.00;;;9.70;99.90;;;;;;7562904;19;20026;-72
2023/07/27 01:44:58;;;;;;;5.22;3.15;;;9.80;99.90;;;;;;7528580;19;20130;-72
2023/07/27 01:47:30;;;;;;;4.10;3.10;;;9.80;99.90;;;;;;7525050;19;20014;-72
2023/07/27 01:50:04;;;;;;;5.43;2.60;;;9.80;99.90;;;;;;7519694;19;20026;-72
2023/07/27 01:52:37;;;;;;;4.15;2.70;;;9.80;99.90;;;;;;7544800;19;20270;-72
2023/07/27 01:55:11;;;;;;;3.95;2.83;;;9.80;99.90;;;;;;7558314;19;20541;-71
2023/07/27 01:57:44;;;;;;;5.20;3.28;;;9.80;99.90;;;;;;7527206;19;20902;-84
2023/07/27 02:00:18;;;;;;;5.90;3.47;;;9.80;99.90;;;;;;7578254;19;20117;-83
2023/07/27 02:02:50;;;;;;;5.03;3.40;;;9.80;99.90;;;;;;7557610;19;20023;-82
2023/07/27 02:05:24;;;;;;;6.23;3.13;;;9.70;99.90;;;;;;7553030;19;20007;-83
2023/07/27 02:07:56;;;;;;;6.85;3.20;;;9.70;99.90;;;;;;7556982;19;20267;-82
2023/07/27 02:10:30;;;;;;;7.05;3.15;;;9.60;99.90;;;;;;7540101;19;20023;-82
2023/07/27 02:13:19;;;;;;;6.93;3.33;;;9.60;99.90;;;;;;7552238;19;20014;-82
2023/07/27 02:16:02;;;;;;;3.75;2.92;;;9.60;99.90;;;;;;7548404;19;20034;-83
2023/07/27 02:18:36;;;;;;;5.97;3.63;;;9.70;99.90;;;;;;7529489;19;20438;-83
2023/07/27 02:21:08;;;;;;;5.72;2.97;;;9.50;99.90;;;;;;7527439;19;20382;-81
2023/07/27 02:23:41;;;;;;;6.47;3.40;;;9.50;99.90;;;;;;7561600;19;20022;-81
2023/07/27 02:26:14;;;;;;;4.80;2.72;;;9.50;99.90;;;;;;7554526;19;20014;-82
2023/07/27 02:28:46;;;;;;;6.25;3.83;;;9.50;99.90;;;;;;7570844;19;20019;-82
2023/07/27 02:31:19;;;;;;;5.97;3.47;;;9.40;99.90;;;;;;7558181;19;20011;-81
2023/07/27 02:33:51;;;;;;;5.57;3.45;;;9.40;99.90;;;;;;7604389;19;20051;-82
2023/07/27 02:36:24;;;;;;;7.73;3.90;;;9.40;99.90;;;;;;7598399;19;20283;-82
2023/07/27 02:38:56;;;;;;;4.72;3.10;;;9.40;99.90;;;;;;7565378;19;20403;-82
2023/07/27 02:41:28;;;;;;;4.97;3.30;;;9.40;99.90;;;;;;7563872;19;20018;-80
2023/07/27 02:44:01;;;;;;;5.82;3.47;;;9.40;99.90;;;;;;7583964;19;20097;-82
2023/07/27 02:46:34;;;;;;;4.32;3.40;;;9.40;99.90;;;;;;7576150;19;20065;-81
2023/07/27 02:49:07;;;;;;;6.57;3.33;;;9.40;99.90;;;;;;7556620;19;20494;-81
2023/07/27 02:51:41;;;;;;;6.03;3.58;;;9.40;99.90;;;;;;7546597;19;20090;-82
2023/07/27 02:54:13;;;;;;;5.43;3.10;;;9.40;99.90;;;;;;7557656;19;20026;-81
2023/07/27 02:56:45;;;;;;;6.70;3.15;;;9.40;99.90;;;;;;7565762;19;20528;-82
2023/07/27 02:59:17;;;;;;;4.43;3.03;;;9.40;99.90;;;;;;7559206;19;20139;-81
2023/07/27 03:01:51;;;;;;;5.32;3.85;;;9.40;99.90;;;;;;7530951;19;20698;-82
2023/07/27 03:04:28;;;;;;;5.40;3.60;;;9.40;99.90;;;;;;7529897;19;21003;-82
2023/07/27 03:07:01;;;;;;;5.53;3.53;;;9.40;99.90;;;;;;7539951;19;20551;-82
2023/07/27 03:09:33;;;;;;;7.53;3.38;;;9.40;99.90;;;;;;7536604;19;20017;-81
2023/07/27 03:12:06;;;;;;;6.05;3.58;;;9.30;99.90;;;;;;7534557;19;20025;-82
2023/07/27 03:14:38;;;;;;;5.40;3.53;;;9.30;99.90;;;;;;7526739;19;20014;-82
2023/07/27 03:17:10;;;;;;;6.00;3.40;;;9.30;99.90;;;;;;7523829;19;20006;-80
2023/07/27 03:19:43;;;;;;;5.03;3.53;;;9.30;99.90;;;;;;7574258;19;20029;-81
2023/07/27 03:22:15;;;;;;;5.55;3.80;;;9.30;99.90;;;;;;7570255;19;20014;-81
2023/07/27 03:24:47;;;;;;;6.32;3.92;;;9.30;99.90;;;;;;7571884;19;22044;-82
2023/07/27 03:27:19;;;;;;;4.57;3.35;;;9.30;99.90;;;;;;7571484;19;20030;-82
2023/07/27 03:29:52;;;;;;;5.65;3.55;;;9.30;99.90;;;;;;7569118;19;20296;-82
2023/07/27 03:32:24;;;;;;;6.55;3.65;;;9.30;99.90;;;;;;7539182;19;20018;-82
2023/07/27 03:34:57;;;;;;;7.45;3.88;;;9.20;99.90;;;;;;7552814;19;20010;-82
2023/07/27 03:37:29;;;;;;;9.25;3.63;;;9.20;99.90;;;;;;7546382;19;20015;-83
2023/07/27 03:40:02;;;;;;;5.13;3.72;;;9.30;99.90;;;;;;7566024;19;20066;-81
2023/07/27 03:42:34;;;;;;;9.93;4.18;;;9.30;99.90;;;;;;7565619;19;20051;-81
2023/07/27 03:45:07;;;;;;;4.75;3.38;;;9.20;99.90;;;;;;7545980;19;20014;-81
2023/07/27 03:47:40;;;;;;;5.78;3.33;;;9.30;99.90;;;;;;7560866;19;20021;-80
2023/07/27 03:50:14;;;;;;;4.20;3.28;;;9.40;99.90;;;;;;7539926;19;20019;-81
2023/07/27 03:52:48;;;;;;;;;;;9.30;99.90;;;;;;7545751;19;20006;-81
2023/07/27 03:55:20;;;;;;;9.88;3.15;;;9.30;99.90;;;;;;7559067;19;20835;-81
2023/07/27 03:57:52;;;;;;;5.28;3.50;;;9.30;99.90;;;;;;7585209;19;20010;-81
2023/07/27 04:00:25;;;;;;;5.13;3.57;;;9.30;99.90;;;;;;7575584;19;20641;-81
2023/07/27 04:02:57;;;;;;;9.10;3.60;;;9.30;99.90;;;;;;7565126;19;20010;-80
2023/07/27 04:05:31;;;;;;;4.80;3.15;;;9.30;99.90;;;;;;7564264;19;20018;-80
2023/07/27 04:08:04;;;;;;;4.65;3.38;;;9.30;99.90;;;;;;7565570;19;20049;-80
2023/07/27 04:10:36;;;;;;;6.20;3.97;;;9.20;99.90;;;;;;7581027;19;20598;-81
2023/07/27 04:13:10;;;;;;;4.80;3.00;;;9.30;99.90;;;;;;7572851;19;20044;-82
2023/07/27 04:15:42;;;;;;;7.10;3.90;;;9.30;99.90;;;;;;7566686;19;20018;-81
2023/07/27 04:18:15;;;;;;;5.28;3.45;;;9.40;99.90;;;;;;7538536;19;20011;-82
2023/07/27 04:20:48;;;;;;;6.03;3.92;;;9.40;99.90;;;;;;7556759;19;20014;-81
2023/07/27 04:23:20;;;;;;;8.18;3.33;;;9.40;99.90;;;;;;7569089;19;20026;-83
2023/07/27 04:25:52;;;;;;;6.93;3.83;;;9.40;99.90;;;;;;7550357;19;20025;-82
2023/07/27 04:28:24;;;;;;;4.20;3.30;;;9.40;99.90;;;;;;7566842;19;20023;-79
2023/07/27 04:30:57;;;;;;;6.15;3.78;;;9.40;99.90;;;;;;7581853;19;20403;-81
2023/07/27 04:33:30;;;;;;;5.28;4.05;;;9.30;99.90;;;;;;7584248;19;20041;-82
2023/07/27 04:36:03;;;;;;;5.88;4.13;;;9.40;99.90;;;;;;7585147;19;20006;-80
2023/07/27 04:38:35;;;;;;;5.63;4.45;;;9.40;99.90;;;;;;7572709;19;20056;-81
2023/07/27 04:41:08;;;;;;;7.00;3.65;;;9.50;99.90;;;;;;7558589;19;20011;-81
2023/07/27 04:43:40;;;;;;;7.25;3.60;;;9.60;99.90;;;;;;7542693;19;20428;-81
2023/07/27 04:46:12;;;;;;;8.43;5.50;;;9.70;99.90;;;;;;7546084;19;20013;-81
2023/07/27 04:48:44;;;;;;;19.52;8.32;;;9.70;99.90;;;;;;7501857;19;20015;-83
2023/07/27 04:51:16;;;;;;;13.68;7.82;;;9.80;99.90;;;;;;7549795;19;20022;-83
2023/07/27 04:53:49;;;;;;;16.88;8.57;;;9.80;99.90;;;;;;7529435;19;20309;-82
2023/07/27 04:56:21;;;;;;;16.95;8.48;;;9.80;99.90;;;;;;7533541;19;21812;-83
2023/07/27 04:58:54;;;;;;;13.25;6.30;;;10.00;99.90;;;;;;7525500;19;20471;-82
2023/07/27 05:01:26;;;;;;;10.93;5.47;;;10.10;99.90;;;;;;7516856;19;20015;-81
2023/07/27 05:03:59;;;;;;;8.93;4.68;;;10.10;99.90;;;;;;7528284;19;20522;-82
2023/07/27 05:06:31;;;;;;;6.10;3.70;;;10.20;99.90;;;;;;7552818;19;20010;-81
2023/07/27 05:09:04;;;;;;;6.45;3.97;;;10.20;99.90;;;;;;7519484;19;20508;-82
2023/07/27 05:11:36;;;;;;;6.15;3.03;;;10.30;99.90;;;;;;7547714;19;20029;-83
2023/07/27 05:14:08;;;;;;;6.88;3.72;;;10.40;99.90;;;;;;7567101;19;20513;-83
2023/07/27 05:16:41;;;;;;;4.05;3.30;;;10.60;99.90;;;;;;7530644;19;20023;-82
2023/07/27 05:19:13;;;;;;;12.60;4.75;;;10.60;99.90;;;;;;7548672;19;20019;-82
2023/07/27 05:21:45;;;;;;;9.43;5.38;;;10.70;99.90;;;;;;7563931;19;20051;-82
2023/07/27 05:24:18;;;;;;;9.20;5.38;;;10.90;99.90;;;;;;7543213;19;20513;-82
2023/07/27 05:26:50;;;;;;;9.98;5.63;;;10.90;99.90;;;;;;7555184;19;20953;-82
2023/07/27 05:29:29;;;;;;;13.38;7.00;;;11.10;99.90;;;;;;7499166;19;20284;-83
2023/07/27 05:32:02;;;;;;;7.57;4.50;;;11.20;99.90;;;;;;7520990;19;20021;-81
2023/07/27 05:34:34;;;;;;;11.80;4.83;;;11.40;99.90;;;;;;7530559;19;20014;-82
2023/07/27 05:37:07;;;;;;;8.07;4.15;;;11.50;99.90;;;;;;7556588;19;20014;-81
2023/07/27 05:39:39;;;;;;;8.85;3.63;;;11.70;99.90;;;;;;7533650;19;20665;-83
2023/07/27 05:42:11;;;;;;;9.20;3.90;;;11.80;99.90;;;;;;7535233;19;20022;-82
2023/07/27 05:44:44;;;;;;;8.40;3.35;;;12.10;99.90;;;;;;7540910;19;20630;-82
2023/07/27 05:47:17;;;;;;;5.82;3.58;;;12.30;99.90;;;;;;7536218;19;20037;-82
2023/07/27 05:49:49;;;;;;;9.38;3.22;;;12.40;99.90;;;;;;7547056;19;20018;-83
2023/07/27 05:52:21;;;;;;;4.38;2.88;;;12.60;99.90;;;;;;7527380;19;20021;-82
2023/07/27 05:54:53;;;;;;;8.07;3.55;;;12.70;99.90;;;;;;7547761;19;20607;-83
2023/07/27 05:57:26;;;;;;;5.63;3.65;;;12.70;99.90;;;;;;7537160;19;20311;-82
2023/07/27 05:59:58;;;;;;;7.03;3.00;;;12.80;99.90;;;;;;7541579;19;20593;-84
2023/07/27 06:02:38;;;;;;;5.32;3.25;;;13.00;99.90;;;;;;7538310;19;20006;-84
2023/07/27 06:05:11;;;;;;;4.60;3.47;;;12.90;99.90;;;;;;7555158;19;20859;-83
2023/07/27 06:07:43;;;;;;;7.63;2.90;;;13.00;99.90;;;;;;7564260;19;20495;-83
2023/07/27 06:10:15;;;;;;;7.38;3.13;;;13.10;99.90;;;;;;7582918;19;20486;-83
2023/07/27 06:12:48;;;;;;;7.60;3.00;;;13.20;99.90;;;;;;7579553;19;20365;-83
2023/07/27 06:15:20;;;;;;;6.80;3.80;;;13.30;99.90;;;;;;7570264;19;20050;-84
2023/07/27 06:17:52;;;;;;;6.60;4.30;;;13.30;99.90;;;;;;7571010;19;20462;-81
2023/07/27 06:20:25;;;;;;;9.52;4.03;;;13.40;99.90;;;;;;7608041;19;20412;-82
2023/07/27 06:22:57;;;;;;;5.55;3.35;;;13.50;99.90;;;;;;7557277;19;21440;-83
2023/07/27 06:25:29;;;;;;;7.00;3.55;;;13.60;99.90;;;;;;7567069;19;20021;-84
2023/07/27 06:28:01;;;;;;;4.60;2.67;;;13.70;99.90;;;;;;7561157;19;20043;-83
2023/07/27 06:30:38;;;;;;;6.47;3.70;;;13.70;99.90;;;;;;7530988;19;20007;-81
2023/07/27 06:33:11;;;;;;;7.82;3.08;;;13.70;99.90;;;;;;7589439;19;20010;-81
2023/07/27 06:35:43;;;;;;;5.93;3.13;;;13.80;99.90;;;;;;7569768;19;20042;-81
2023/07/27 06:38:15;;;;;;;7.10;3.50;;;13.80;99.90;;;;;;7587932;19;20018;-81
2023/07/27 06:40:48;;;;;;;11.60;3.83;;;13.90;99.90;;;;;;7576816;19;20017;-81
2023/07/27 06:43:20;;;;;;;6.50;3.47;;;14.00;99.90;;;;;;7573687;19;20044;-81
2023/07/27 06:45:52;;;;;;;7.28;2.92;;;14.10;99.90;;;;;;7590024;19;20049;-81
2023/07/27 06:48:24;;;;;;;6.82;2.65;;;14.20;99.90;;;;;;7587341;19;20855;-81
2023/07/27 06:50:57;;;;;;;8.30;4.82;;;14.40;99.90;;;;;;7582832;19;20740;-82
2023/07/27 06:53:30;;;;;;;5.82;3.20;;;14.50;99.90;;;;;;7587383;19;20060;-81
2023/07/27 06:56:04;;;;;;;5.57;3.03;;;14.60;99.90;;;;;;7591604;19;20022;-82
2023/07/27 06:58:36;;;;;;;5.80;2.30;;;14.70;99.90;;;;;;7582165;19;20407;-81
2023/07/27 07:01:10;;;;;;;4.57;2.78;;;14.80;99.90;;;;;;7568842;19;20431;-82
2023/07/27 07:03:42;;;;;;;4.95;2.83;;;14.90;99.90;;;;;;7564341;19;20015;-81
2023/07/27 07:06:15;;;;;;;3.83;2.78;;;15.00;99.90;;;;;;7575587;19;20390;-81
2023/07/27 07:08:47;;;;;;;7.83;2.50;;;15.10;99.90;;;;;;7571352;19;20111;-82
2023/07/27 07:11:20;;;;;;;6.40;2.75;;;15.20;99.90;;;;;;7580614;19;20347;-82
2023/07/27 07:13:52;;;;;;;7.32;2.80;;;15.30;99.90;;;;;;7565544;19;20716;-81
2023/07/27 07:16:25;;;;;;;6.20;2.83;;;15.50;99.90;;;;;;7581091;19;20203;-82
2023/07/27 07:18:57;;;;;;;6.53;2.85;;;15.70;99.90;;;;;;7571844;19;20464;-81
2023/07/27 07:21:30;;;;;;;4.82;2.78;;;15.90;99.90;;;;;;7552384;19;20763;-82
2023/07/27 07:24:02;;;;;;;5.00;2.60;;;16.00;99.90;;;;;;7595098;19;20628;-83
2023/07/27 07:26:35;;;;;;;4.00;2.55;;;16.20;99.90;;;;;;7585255;19;20045;-82
2023/07/27 07:29:08;;;;;;;5.28;2.80;;;16.40;99.90;;;;;;7588421;19;20042;-80
2023/07/27 07:31:40;;;;;;;5.47;2.90;;;16.60;99.90;;;;;;7582168;19;20134;-83
2023/07/27 07:34:13;;;;;;;3.92;2.58;;;16.70;99.90;;;;;;7577787;19;20015;-82
2023/07/27 07:36:45;;;;;;;7.28;2.80;;;16.80;99.90;;;;;;7576419;19;20788;-82
2023/07/27 07:39:18;;;;;;;5.32;2.75;;;16.80;99.90;;;;;;7586655;19;20022;-83
2023/07/27 07:41:50;;;;;;;7.25;3.03;;;16.90;99.90;;;;;;7590403;19;22093;-82
2023/07/27 07:44:22;;;;;;;5.53;2.63;;;17.00;99.90;;;;;;7589620;19;20048;-82
2023/07/27 07:46:55;;;;;;;7.13;2.45;;;17.10;99.90;;;;;;7578333;19;20022;-81
2023/07/27 07:49:27;;;;;;;6.07;2.30;;;17.20;99.90;;;;;;7580241;19;21029;-83
2023/07/27 07:51:59;;;;;;;10.63;2.50;;;17.30;99.90;;;;;;7574335;19;20014;-83
2023/07/27 07:54:32;;;;;;;6.72;2.40;;;17.30;99.90;;;;;;7561281;19;20465;-81
2023/07/27 07:57:04;;;;;;;4.78;2.40;;;17.40;99.90;;;;;;7587721;19;20506;-82
2023/07/27 07:59:37;;;;;;;10.77;2.80;;;17.50;99.90;;;;;;7584193;19;20014;-83
2023/07/27 08:02:09;;;;;;;7.95;2.58;;;17.70;99.90;;;;;;7522452;19;20354;-82
2023/07/27 08:04:41;;;;;;;5.13;2.50;;;17.80;99.90;;;;;;7559981;19;20015;-83
2023/07/27 08:07:16;;;;;;;5.45;2.42;;;18.00;99.90;;;;;;7569215;19;20018;-82
2023/07/27 08:09:48;;;;;;;5.25;2.22;;;18.10;99.90;;;;;;7582107;19;20022;-83
2023/07/27 08:12:20;;;;;;;4.45;2.20;;;18.20;99.90;;;;;;7574960;19;20017;-83
2023/07/27 08:14:53;;;;;;;4.88;2.40;;;18.20;99.90;;;;;;7574321;19;20052;-80
2023/07/27 08:17:29;;;;;;;3.38;2.42;;;18.30;99.90;;;;;;7593529;19;20018;-82
2023/07/27 08:20:03;;;;;;;3.97;2.58;;;18.30;99.90;;;;;;7560397;19;20038;-83
2023/07/27 08:22:35;;;;;;;4.25;2.65;;;18.40;99.90;;;;;;7560167;19;20553;-83
2023/07/27 08:25:08;;;;;;;3.58;2.38;;;18.60;99.90;;;;;;7578911;19;20017;-84
2023/07/27 08:27:53;;;;;;;3.45;2.50;;;18.70;99.90;;;;;;7575593;19;20087;-84
2023/07/27 08:30:25;;;;;;;6.15;2.60;;;18.90;99.90;;;;;;7597109;19;20043;-84
2023/07/27 08:32:58;;;;;;;4.53;2.25;;;19.00;99.90;;;;;;7589593;19;20018;-83
2023/07/27 08:35:32;;;;;;;3.97;2.57;;;19.20;98.40;;;;;;7585270;19;20014;-83
2023/07/27 08:38:06;;;;;;;3.63;2.35;;;19.30;98.90;;;;;;7536581;19;20021;-84
2023/07/27 08:40:39;;;;;;;3.80;2.63;;;19.50;96.20;;;;;;7554714;19;20303;-84
2023/07/27 08:43:11;;;;;;;5.38;2.50;;;19.50;96.00;;;;;;7567253;19;20331;-84
2023/07/27 08:45:43;;;;;;;3.65;2.20;;;19.50;95.90;;;;;;7574497;19;20017;-84
2023/07/27 08:48:17;;;;;;;3.47;2.35;;;19.50;96.60;;;;;;7561061;19;20021;-84
2023/07/27 08:50:51;;;;;;;5.50;2.25;;;19.50;96.40;;;;;;7576342;19;20018;-83
2023/07/27 08:53:25;;;;;;;3.85;2.50;;;19.60;96.10;;;;;;7563606;19;20018;-83
2023/07/27 08:55:58;;;;;;;4.13;2.25;;;19.60;96.20;;;;;;7558451;19;20912;-83
2023/07/27 08:58:31;;;;;;;4.40;2.73;;;19.70;94.70;;;;;;7586361;19;20010;-84
2023/07/27 09:01:03;;;;;;;3.60;2.45;;;19.80;95.00;;;;;;7573547;19;20479;-84
2023/07/27 09:03:36;;;;;;;3.53;2.65;;;19.80;92.30;;;;;;7564453;19;20011;-85
2023/07/27 09:06:08;;;;;;;3.38;2.40;;;20.00;96.10;;;;;;7576790;19;20702;-84
2023/07/27 09:08:43;;;;;;;4.25;2.67;;;20.10;94.00;;;;;;7556900;19;20383;-83
2023/07/27 09:11:19;;;;;;;3.05;2.30;;;20.10;94.00;;;;;;7574827;19;20398;-84
2023/07/27 09:13:51;;;;;;;4.60;2.53;;;20.10;90.60;;;;;;7532600;19;20022;-85
2023/07/27 09:16:24;;;;;;;3.10;2.13;;;20.10;91.90;;;;;;7550588;19;20275;-84
2023/07/27 09:18:56;;;;;;;5.93;2.28;;;20.20;91.80;;;;;;7591722;19;20010;-84
2023/07/27 09:21:41;;;;;;;3.55;2.25;;;20.30;91.00;;;;;;7584997;19;20039;-85
2023/07/27 09:24:16;;;;;;;6.00;2.42;;;20.40;90.20;;;;;;7585136;19;20019;-84
2023/07/27 09:26:49;;;;;;;4.93;2.47;;;20.50;90.00;;;;;;7558111;19;20018;-84
2023/07/27 09:29:21;;;;;;;3.15;2.42;;;20.50;87.60;;;;;;7579134;19;20119;-82
2023/07/27 09:31:58;;;;;;;3.83;2.20;;;20.60;86.50;;;;;;7539755;19;20043;-80
2023/07/27 09:34:32;;;;;;;3.72;2.78;;;20.50;83.70;;;;;;7570074;19;20082;-81
2023/07/27 09:37:05;;;;;;;3.22;2.15;;;20.70;82.10;;;;;;7604599;19;20013;-81
2023/07/27 09:39:43;;;;;;;3.35;2.25;;;20.60;79.80;;;;;;7599708;19;20064;-81
2023/07/27 09:42:16;;;;;;;5.82;2.50;;;20.60;80.50;;;;;;7590883;19;20007;-81
2023/07/27 09:44:49;;;;;;;3.47;2.50;;;20.70;79.50;;;;;;7594434;19;20015;-82
2023/07/27 09:47:23;;;;;;;4.07;2.47;;;20.70;79.30;;;;;;7602592;19;20918;-83
2023/07/27 09:49:58;;;;;;;4.75;2.58;;;20.70;79.90;;;;;;7594370;19;20015;-81
2023/07/27 09:52:31;;;;;;;3.05;2.38;;;20.70;78.20;;;;;;7549171;19;20617;-82
2023/07/27 09:55:04;;;;;;;3.30;2.50;;;20.80;81.20;;;;;;7555208;19;20581;-83
2023/07/27 09:57:37;;;;;;;3.78;2.63;;;20.80;78.40;;;;;;7584092;19;20275;-82
2023/07/27 10:00:10;;;;;;;5.17;2.60;;;20.90;77.30;;;;;;7590936;19;20026;-82
2023/07/27 10:02:48;;;;;;;2.97;2.10;;;20.90;77.00;;;;;;7576302;19;20499;-81
2023/07/27 10:05:22;;;;;;;3.25;2.42;;;20.90;76.50;;;;;;7554697;19;20006;-82
2023/07/27 10:07:56;;;;;;;2.83;2.15;;;20.80;78.60;;;;;;7603934;19;20018;-79
2023/07/27 10:10:39;;;;;;;4.70;2.85;;;20.90;77.70;;;;;;7598586;19;20019;-80
2023/07/27 10:13:30;;;;;;;2.65;2.25;;;20.90;79.80;;;;;;7590698;19;20010;-79
2023/07/27 10:16:08;;;;;;;3.60;2.67;;;20.90;79.50;;;;;;7602630;19;20279;-81
2023/07/27 10:18:42;;;;;;;3.45;2.45;;;20.90;76.50;;;;;;7598052;19;20023;-83
2023/07/27 10:21:21;;;;;;;3.03;2.38;;;21.00;76.90;;;;;;7564116;19;20043;-81
2023/07/27 10:23:55;;;;;;;4.55;2.53;;;21.00;76.80;;;;;;7553980;19;20618;-82
2023/07/27 10:26:46;;;;;;;;;;;20.90;80.60;;;;;;7529457;19;20046;-80
2023/07/27 10:29:24;;;;;;;3.30;2.20;;;21.00;74.50;;;;;;7543989;19;19939;-82
2023/07/27 10:32:00;;;;;;;6.10;2.65;;;20.90;76.80;;;;;;7542459;19;20393;-81
2023/07/27 10:34:35;;;;;;;5.30;2.58;;;21.00;74.70;;;;;;7537504;19;20014;-81
2023/07/27 10:37:16;;;;;;;3.50;2.13;;;21.00;76.70;;;;;;7564701;19;20011;-82
2023/07/27 10:39:51;;;;;;;3.38;2.20;;;20.90;76.20;;;;;;7560861;19;20038;-82
2023/07/27 10:42:27;;;;;;;3.92;2.30;;;20.90;76.90;;;;;;7573993;19;20053;-82
2023/07/27 10:44:59;;;;;;;3.08;2.05;;;21.00;76.50;;;;;;7602243;19;20010;-82
2023/07/27 10:47:39;;;;;;;5.85;2.63;;;21.20;77.30;;;;;;7564877;19;20018;-80
2023/07/27 10:50:13;;;;;;;4.93;2.70;;;21.30;76.20;;;;;;7570115;19;20015;-83
2023/07/27 10:52:45;;;;;;;;;;;21.50;80.60;;;;;;7583818;19;20014;-82
2023/07/27 10:55:19;;;;;;;4.47;2.72;;;21.50;75.90;;;;;;7576432;19;19925;-82
2023/07/27 10:57:55;;;;;;;4.03;2.70;;;21.60;76.20;;;;;;7590828;19;20014;-82
2023/07/27 11:00:37;;;;;;;6.20;3.08;;;21.70;75.70;;;;;;7586641;19;20017;-82
2023/07/27 11:03:09;;;;;;;5.55;2.53;;;21.80;77.40;;;;;;7553561;19;20049;-80
2023/07/27 11:06:02;;;;;;;4.00;2.50;;;22.00;71.20;;;;;;7609829;19;20018;-81
2023/07/27 11:08:38;;;;;;;3.30;2.28;;;22.00;74.20;;;;;;7586272;19;20010;-81
2023/07/27 11:11:20;;;;;;;3.15;2.28;;;22.00;72.90;;;;;;7583723;19;20034;-79
2023/07/27 11:13:53;;;;;;;3.90;2.50;;;22.10;73.50;;;;;;7602204;19;20013;-80
2023/07/27 11:16:25;;;;;;;3.65;2.38;;;22.10;73.20;;;;;;7602611;19;21051;-80
2023/07/27 11:19:00;;;;;;;3.80;2.35;;;22.10;71.80;;;;;;7603049;19;20019;-82
2023/07/27 11:21:39;;;;;;;3.15;2.20;;;22.10;73.40;;;;;;7592453;19;20123;-81
2023/07/27 11:24:15;;;;;;;3.38;2.45;;;21.90;69.00;;;;;;7595803;19;20014;-81
2023/07/27 11:26:48;;;;;;;3.30;2.30;;;22.00;69.30;;;;;;7595178;19;20022;-82
2023/07/27 11:29:21;;;;;;;5.05;2.22;;;22.00;67.70;;;;;;7583501;19;20018;-81
2023/07/27 11:31:56;;;;;;;3.55;2.42;;;21.90;71.20;;;;;;7564799;19;20956;-78
2023/07/27 11:34:29;;;;;;;3.08;2.05;;;21.90;69.60;;;;;;7551456;19;20039;-82
2023/07/27 11:37:01;;;;;;;2.65;1.83;;;21.90;69.10;;;;;;7578782;19;20629;-80
2023/07/27 11:39:34;;;;;;;5.35;2.10;;;22.00;70.10;;;;;;7593053;19;20556;-81
2023/07/27 11:42:10;;;;;;;3.72;2.47;;;22.00;73.70;;;;;;7572326;19;21405;-83
2023/07/27 11:44:42;;;;;;;3.97;2.70;;;21.90;70.90;;;;;;7609024;19;20486;-82
2023/07/27 11:47:15;;;;;;;3.95;2.42;;;22.00;70.90;;;;;;7584381;19;20900;-82
2023/07/27 11:49:49;;;;;;;3.42;2.50;;;22.00;71.40;;;;;;7602105;19;20027;-80
2023/07/27 11:52:22;;;;;;;3.85;2.13;;;21.90;72.70;;;;;;7574010;19;20621;-81
2023/07/27 11:54:55;;;;;;;3.90;2.10;;;21.90;71.30;;;;;;7575668;19;20107;-81
2023/07/27 11:57:27;;;;;;;4.22;2.53;;;21.80;71.60;;;;;;7602572;19;20637;-80
2023/07/27 12:00:13;;;;;;;7.93;2.63;;;21.50;72.40;;;;;;7064421;19;10000632;-80
2023/07/27 12:02:50;;;;;;;4.25;2.75;;;21.60;76.80;;;;;;7071698;19;10000527;-81
2023/07/27 12:05:23;;;;;;;5.82;2.35;;;21.70;76.30;;;;;;7563003;19;20171;-81
2023/07/27 12:07:56;;;;;;;5.38;2.30;;;21.70;76.80;;;;;;7567901;19;20018;-81
2023/07/27 12:10:31;;;;;;;2.95;2.08;;;21.60;74.70;;;;;;7566877;19;20583;-80
2023/07/27 12:13:05;;;;;;;4.68;2.85;;;21.50;75.10;;;;;;7543581;19;20014;-83
2023/07/27 12:15:43;;;;;;;3.50;2.20;;;21.40;73.30;;;;;;7550219;19;20048;-80
2023/07/27 12:18:35;;;;;;;4.75;2.67;;;21.40;75.60;;;;;;7557295;19;20052;-79
2023/07/27 12:21:11;;;;;;;4.40;2.53;;;21.50;74.00;;;;;;7570642;19;20711;-82
2023/07/27 12:23:46;;;;;;;8.30;3.20;;;21.60;74.40;;;;;;7586123;19;20371;-81
2023/07/27 12:26:18;;;;;;;3.47;2.60;;;21.70;74.40;;;;;;7569450;19;20797;-79
2023/07/27 12:28:54;;;;;;;6.22;2.42;;;21.90;76.90;;;;;;7555775;19;20020;-81
2023/07/27 12:31:47;;;;;;;3.15;2.53;;;22.00;73.50;;;;;;7561901;19;20816;-79
2023/07/27 12:34:22;;;;;;;5.10;2.40;;;22.20;75.30;;;;;;7552038;19;20466;-80
2023/07/27 12:36:56;;;;;;;5.03;2.58;;;22.40;74.00;;;;;;7576914;19;20075;-80
2023/07/27 12:39:31;;;;;;;3.55;2.13;;;22.70;72.60;;;;;;7575710;19;20029;-81
2023/07/27 12:42:04;;;;;;;3.13;2.10;;;22.70;72.50;;;;;;7564036;19;20090;-81
2023/07/27 12:44:39;;;;;;;3.28;2.53;;;22.90;73.70;;;;;;7587759;19;20956;-80
2023/07/27 12:47:11;;;;;;;8.68;2.95;;;22.80;73.10;;;;;;7556060;19;20554;-81
2023/07/27 12:49:43;;;;;;;3.17;2.00;;;22.90;75.30;;;;;;7556801;19;20938;-79
2023/07/27 12:52:16;;;;;;;4.35;2.05;;;23.00;74.40;;;;;;7566256;19;20370;-81
2023/07/27 12:54:48;;;;;;;12.68;3.17;;;23.20;72.40;;;;;;7553096;19;20022;-82
2023/07/27 12:57:22;;;;;;;3.03;2.20;;;23.60;72.30;;;;;;7496685;19;20814;-82
2023/07/27 12:59:54;;;;;;;;;;;23.70;72.50;;;;;;7543717;19;20479;-80
2023/07/27 13:02:26;;;;;;;5.63;2.80;;;23.60;72.10;;;;;;7513723;19;19918;-82
2023/07/27 13:04:58;;;;;;;3.47;2.22;;;23.70;71.00;;;;;;7513363;19;20630;-80
2023/07/27 13:07:30;;;;;;;2.85;1.80;;;23.50;71.50;;;;;;7482416;19;20010;-83
2023/07/27 13:10:03;;;;;;;3.20;1.92;;;23.40;70.30;;;;;;7548819;19;20023;-85
2023/07/27 13:12:36;;;;;;;3.13;2.17;;;23.30;71.40;;;;;;7530222;19;20065;-85
2023/07/27 13:15:08;;;;;;;4.33;2.10;;;23.30;71.80;;;;;;7551960;19;20770;-85
2023/07/27 13:17:41;;;;;;;22.52;4.03;;;23.20;70.20;;;;;;7572880;19;20323;-84
2023/07/27 13:20:13;;;;;;;4.78;2.40;;;23.00;72.40;;;;;;7547845;19;20498;-85
2023/07/27 13:22:47;;;;;;;4.20;2.20;;;23.00;73.90;;;;;;7566481;19;20025;-85
2023/07/27 13:25:19;;;;;;;2.80;1.88;;;23.20;71.40;;;;;;7497713;19;20014;-84